Speed, Indiana
Current Conditions -  °F | °C
As of 3:53 AM on Saturday 29 Nov 2014 (Local Time) from KLOU Reporting Station
Clear Clear  
Wind Chill:   Ceiling: Unl
Heat Index:   Visibility: 10mi
Dew Point: -6°   Wind: 3mph
Humidity: 59%   Direction: 120°ESE
Pressure: 30.06"   Gusts: NA
Location:  38.3931°N, 85.7713°W
Report Text: KLOU 290853Z AUTO 12003KT 10SM CLR 02/M06 A3006 RMK AO2 SLP182 T00171056 58005
Loading
Personal Weather Stations






























Interactive Weather Map New forecast layout! Learn more

10-Day Weather Forecast

Advertisements
Track Severe Weather on mobile